Aviation Digital Data Service (ADDS)

Output produced by METARs form (0707 UTC 24 March 2019)
found at http://www.aviationweather.gov/metar/data/
 
LGPZ 240650Z 07005KT CAVOK 15/03 Q1021 RMK FEW180 BLU
TAF LGPZ 240500Z 2406/2506 08010KT 9999 FEW020 
     BECMG 2410/2412 27010KT 
     BECMG 2418/2420 VRB05KT
       
LGAD 240650Z 00000KT CAVOK 14/07 Q1019
TAF LGAD 240500Z 2406/2415 01010KT 9999 FEW030
       
LGRX 240650Z 03011KT CAVOK 16/07 Q1019
TAF LGRX 240500Z 2406/2415 05012KT 9999 FEW030
       
LGHI 240650Z 01016KT CAVOK 12/M05 Q1018
TAF LGHI 240500Z 2406/2415 01018G30KT 9999 FEW020
       
LGRP 240650Z 02010KT CAVOK 16/06 Q1009 NOSIG
TAF LGRP 240500Z 2406/2506 34015G25KT 9999 FEW020 
     BECMG 2419/2421 35015KT
       
LGAL 240650Z 07007KT CAVOK 10/M02 Q1023
TAF LGAL 240500Z 2406/2415 05008KT 9999 FEW030
       
LGEL 240650Z 36009KT 9999 FEW025 15/03 Q1020
TAF LGEL 240500Z 2406/2506 35015KT 9999 FEW025 
     TEMPO 2407/2415 36015G25KT
       
LGAV 240650Z 36011KT 9999 FEW040 13/00 Q1020 NOSIG
TAF LGAV 240500Z 2406/2506 03020KT 9999 FEW020 SCT040 
     TEMPO 2406/2418 03020G35KT
       
LGKZ 240650Z 00000KT CAVOK 10/04 Q1022
LGIO 240650Z /////KT CAVOK 16/01 Q1020
TAF LGIO 240500Z 2406/2415 VRB03KT 9999 FEW025
       
LGKR 240650Z 00000KT CAVOK 14/11 Q1019 NOSIG
TAF LGKR 240500Z 2406/2506 VRB05KT 9999 FEW020
       
LGKL 240650Z 00000KT CAVOK 01/05 Q1018
TAF LGKL 240500Z 2406/2415 01008KT 9999 FEW030 
     TEMPO 2410/2415 16008KT
       
LGKP 240650Z 32018KT CAVOK 16/03 Q1009
TAF LGKP 240500Z 2406/2415 34025G35KT 9999 FEW020
       
TAF LGTL 240500Z 2406/2415 35015KT 9999 SCT025 
     TEMPO 2406/2415 35015G25KT
       
LGKF 240650Z 31004KT CAVOK 16/10 Q1019
TAF LGKF 240500Z 2406/2415 06010KT 9999 FEW020 
     BECMG 2407/2409 VRB05KT 
     BECMG 2412/2414 30010KT
       
LGKC 240650Z /////KT CAVOK 13/07 Q1018
TAF LGKC 240500Z 2406/2415 04020G35KT 9999 FEW020
       
LGKO 240650Z /////KT CAVOK 13/M02 Q1012
TAF LGKO 240500Z 2406/2506 35025G35KT 9999 FEW020 
     BECMG 2418/2420 34015G25KT
       
TAF LGLR 240500Z 2406/2415 VRB03KT 9999 SCT030 
     BECMG 2407/2409 09008KT 
     TEMPO 2407/2411 BKN030
       
LGLM 240650Z 05010KT CAVOK 10/M00 Q1022
TAF LGLM 240500Z 2406/2415 05020KT 9999 FEW025
       
LGTS 240650Z 10004KT CAVOK 10/06 Q1022 NOSIG
TAF LGTS 240500Z 2406/2506 VRB03KT 9999 FEW025 
     BECMG 2412/2414 16012KT 
     BECMG 2417/2419 VRB03KT 
     PROB30 
     TEMPO 2504/2506 7000
       
LGKV 240650Z 00000KT CAVOK 10/04 Q1023
TAF LGKV 240500Z 2406/2506 VRB03KT 9999 FEW030 
     BECMG 2410/2412 22012KT 
     BECMG 2417/2419 VRB03KT
       
LGMK 240650Z 36020G30KT CAVOK 13/04 Q1017
TAF LGMK 240500Z 2406/2415 01025G40KT 9999 FEW018
       
LGMT 240650Z 35014KT CAVOK 12/M00 Q1018
TAF LGMT 240500Z 2406/2415 01015KT 9999 FEW020 
     TEMPO 2406/2415 01015G25KT
       
LGBL 240650Z 12010KT 9999 FEW030 13/07 Q1022
TAF LGBL 240500Z 2406/2415 27008KT 9999 SCT030 
     BECMG 2407/2409 09010KT 
     TEMPO 2407/2411 BKN030
       
LGIR 240650Z 34021KT 9999 FEW025 15/04 Q1014 NOSIG
TAF LGIR 240500Z 2406/2506 34025G35KT 9999 SCT025 
     BECMG 2418/2420 33020KT
       
LGSM 240650Z 36013KT CAVOK 15/02 Q1015
TAF LGSM 240500Z 2406/2415 01015G28KT 9999 FEW020
       
LGSR 240650Z 01028KT CAVOK 14/02 Q1015
TAF LGSR 240500Z 2406/2506 36035G45KT 9999 FEW020 
     BECMG 2416/2418 36025KT
       
TAF LGSK 240500Z 2406/2415 05013KT 9999 SCT020 
     BECMG 2412/2414 VRB05KT
       
TAF LGSY 240500Z 2406/2415 02015G25KT 9999 FEW020
       
LGSA 240650Z 36012KT 9999 FEW025 15/08 Q1016
TAF LGSA 240500Z 2406/2506 02015G25KT 9999 SCT025 
     TEMPO 2406/2418 01025G35KT
       
LGSO 240650Z AUTO 01024KT //// // ////// 13/04 Q1017 RE//
TAF LGTG 240500Z 2406/2415 36012KT 9999 SCT030 
     TEMPO 2407/2411 BKN030
       
LGZA 240650Z 36004KT CAVOK 15/10 Q1019
TAF LGZA 240500Z 2406/2415 02010KT 9999 FEW020